Wyandanch, New York
Current Conditions -  °F | °C
As of 8:53 PM on Monday 22 Dec 2014 (Local Time) from KFRG Reporting Station
Overcast Overcast  
Wind Chill: 40°   Ceiling: 1200
Heat Index: 45°   Visibility: 7mi
Dew Point: 41°   Wind: 9mph
Humidity: 86%   Direction: 70°ENE
Pressure: 30.2"   Gusts: NA
Location:  40.76°N, 73.36°W
Report Text: KFRG 230153Z 07008KT 7SM OVC012 07/05 A3020 RMK AO2 SLP226 T00720050
Loading
Personal Weather Stations






























Interactive Weather Map New forecast layout! Learn more

10-Day Weather Forecast

Advertisements
Track Severe Weather on mobile